createdAt,value
2023-05-15T00:00:56.308Z,10.49
2023-05-15T00:03:27.054Z,10.24
2023-05-15T00:05:55.263Z,10.50
2023-05-15T00:08:23.199Z,10.23
2023-05-15T00:11:00.665Z,10.48
2023-05-15T00:13:30.262Z,10.39
2023-05-15T00:15:59.646Z,10.55
2023-05-15T00:18:27.904Z,10.49
2023-05-15T00:20:55.957Z,10.48
2023-05-15T00:23:23.940Z,10.35
2023-05-15T00:25:51.965Z,10.42
2023-05-15T00:28:19.918Z,10.41
2023-05-15T00:30:47.896Z,10.43
2023-05-15T00:33:17.318Z,10.35
2023-05-15T00:35:46.181Z,10.29
2023-05-15T00:38:14.156Z,10.23
2023-05-15T00:40:44.044Z,10.18
2023-05-15T00:43:13.432Z,10.21
2023-05-15T00:45:42.387Z,10.21
2023-05-15T00:48:11.261Z,10.19
2023-05-15T00:50:43.465Z,10.00
2023-05-15T00:53:12.207Z,10.08
2023-05-15T00:55:41.803Z,10.13
2023-05-15T00:58:11.474Z,10.02
2023-05-15T01:00:40.150Z,9.93
2023-05-15T01:03:08.272Z,10.11
2023-05-15T01:05:36.393Z,10.04
2023-05-15T01:10:44.202Z,9.96
2023-05-15T01:13:14.807Z,9.99
2023-05-15T01:15:43.016Z,10.09
2023-05-15T01:18:11.310Z,10.11
2023-05-15T01:20:53.140Z,10.15
2023-05-15T01:23:30.933Z,10.12
2023-05-15T01:26:33.729Z,10.09
2023-05-15T01:29:07.324Z,10.02
2023-05-15T01:31:39.260Z,10.03
2023-05-15T01:34:10.668Z,10.00
2023-05-15T01:36:44.106Z,10.05
2023-05-15T01:39:13.034Z,9.96
2023-05-15T01:41:46.893Z,9.91
2023-05-15T01:44:20.070Z,9.81
2023-05-15T01:46:52.436Z,9.95
2023-05-15T01:49:25.063Z,9.89
2023-05-15T01:51:59.031Z,9.63
2023-05-15T01:54:29.043Z,9.73
2023-05-15T01:56:58.693Z,9.76
2023-05-15T01:59:30.561Z,9.79
2023-05-15T02:01:59.870Z,9.76
2023-05-15T02:04:28.683Z,9.71
2023-05-15T02:06:57.947Z,9.71
2023-05-15T02:09:27.176Z,9.81
2023-05-15T02:11:56.853Z,9.85
2023-05-15T02:14:29.464Z,9.83
2023-05-15T02:16:57.478Z,9.87
2023-05-15T02:19:26.330Z,9.82
2023-05-15T02:21:56.613Z,9.79
2023-05-15T02:24:27.092Z,9.71
2023-05-15T02:27:03.993Z,9.72
2023-05-15T02:29:43.591Z,9.78
2023-05-15T02:32:19.545Z,9.82
2023-05-15T02:34:56.783Z,9.85
2023-05-15T02:37:29.651Z,9.87
2023-05-15T02:39:59.790Z,9.87
2023-05-15T02:42:29.257Z,9.82
2023-05-15T02:44:59.377Z,9.49
2023-05-15T02:47:29.660Z,9.69
2023-05-15T02:49:58.691Z,9.65
2023-05-15T02:52:26.769Z,9.40
2023-05-15T02:54:55.069Z,9.61
2023-05-15T02:57:22.977Z,9.68
2023-05-15T02:59:51.205Z,9.74
2023-05-15T03:02:20.809Z,9.87
2023-05-15T03:04:48.770Z,10.03
2023-05-15T03:07:16.913Z,10.07
2023-05-15T03:09:44.991Z,10.10
2023-05-15T03:12:12.900Z,10.12
2023-05-15T03:14:40.804Z,10.17
2023-05-15T03:17:08.832Z,10.03
2023-05-15T03:19:38.256Z,10.15
2023-05-15T03:22:06.346Z,10.09
2023-05-15T03:24:34.297Z,10.23
2023-05-15T03:27:02.370Z,10.14
2023-05-15T03:29:30.239Z,10.21
2023-05-15T03:31:58.211Z,10.19
2023-05-15T03:34:26.327Z,10.16
2023-05-15T03:36:55.647Z,10.24
2023-05-15T03:39:23.603Z,10.07
2023-05-15T03:41:51.587Z,10.27
2023-05-15T03:44:19.432Z,10.29
2023-05-15T03:46:47.422Z,10.25
2023-05-15T03:49:15.331Z,10.21
2023-05-15T03:51:43.269Z,10.30
2023-05-15T03:54:12.748Z,10.26
2023-05-15T03:56:40.735Z,10.30
2023-05-15T03:59:08.601Z,10.28
2023-05-15T04:01:46.689Z,10.22
2023-05-15T04:04:23.602Z,10.30
2023-05-15T04:06:51.654Z,10.33
2023-05-15T04:09:21.028Z,10.28
2023-05-15T04:11:48.890Z,10.06
2023-05-15T04:14:16.910Z,10.24
2023-05-15T04:16:45.157Z,10.23
2023-05-15T04:19:13.232Z,10.21
2023-05-15T04:21:41.336Z,10.00
2023-05-15T04:24:09.621Z,10.04
2023-05-15T04:26:38.948Z,10.09
2023-05-15T04:29:06.978Z,9.88
2023-05-15T04:31:35.608Z,10.02
2023-05-15T04:34:04.420Z,10.02
2023-05-15T04:36:33.014Z,10.26
2023-05-15T04:39:00.926Z,10.06
2023-05-15T04:41:28.915Z,10.30
2023-05-15T04:43:58.612Z,10.44
2023-05-15T04:46:26.588Z,10.36
2023-05-15T04:51:36.466Z,10.60
2023-05-15T04:54:04.845Z,10.54
2023-05-15T04:56:33.281Z,10.79
2023-05-15T04:59:02.684Z,10.86
2023-05-15T05:01:31.033Z,10.91
2023-05-15T05:03:59.177Z,10.72
2023-05-15T05:06:30.453Z,11.02
2023-05-15T05:08:59.125Z,10.97
2023-05-15T05:11:27.185Z,10.93
2023-05-15T05:13:55.147Z,11.04
2023-05-15T05:16:24.789Z,11.03
2023-05-15T05:18:52.850Z,11.06
2023-05-15T05:21:20.851Z,11.09
2023-05-15T05:23:48.829Z,11.02
2023-05-15T05:26:16.754Z,11.17
2023-05-15T05:28:44.655Z,11.21
2023-05-15T05:31:12.678Z,11.20
2023-05-15T05:33:42.344Z,11.32
2023-05-15T05:36:10.826Z,11.43
2023-05-15T05:38:39.382Z,11.51
2023-05-15T05:41:07.313Z,11.54
2023-05-15T05:43:35.162Z,11.70
2023-05-15T05:46:03.508Z,11.55
2023-05-15T05:48:31.554Z,11.84
2023-05-15T05:51:00.942Z,11.72
2023-05-15T05:53:28.891Z,11.88
2023-05-15T05:55:57.242Z,11.88
2023-05-15T05:58:26.233Z,12.09
2023-05-15T06:00:55.020Z,12.06
2023-05-15T06:03:24.232Z,11.97
2023-05-15T06:05:52.999Z,12.15
2023-05-15T06:08:22.389Z,12.31
2023-05-15T06:10:50.373Z,12.43
2023-05-15T06:13:18.569Z,12.43
2023-05-15T06:15:47.479Z,12.59
2023-05-15T06:18:15.615Z,12.63
2023-05-15T06:20:43.595Z,12.57
2023-05-15T06:23:11.506Z,12.67
2023-05-15T06:25:41.555Z,12.79
2023-05-15T06:28:09.526Z,12.73
2023-05-15T06:30:37.690Z,12.84
2023-05-15T06:33:06.050Z,12.74
2023-05-15T06:35:33.984Z,12.91
2023-05-15T06:38:02.109Z,13.14
2023-05-15T06:40:30.510Z,13.15
2023-05-15T06:43:00.033Z,13.20
2023-05-15T06:45:28.622Z,13.43
2023-05-15T06:47:58.500Z,13.62
2023-05-15T06:50:27.811Z,13.68
2023-05-15T06:52:56.049Z,13.84
2023-05-15T06:55:24.162Z,13.90
2023-05-15T06:57:54.027Z,14.03
2023-05-15T07:00:23.571Z,14.12
2023-05-15T07:02:51.570Z,14.17
2023-05-15T07:05:19.736Z,14.37
2023-05-15T07:07:47.700Z,14.53
2023-05-15T07:10:15.741Z,14.67
2023-05-15T07:12:43.713Z,14.75
2023-05-15T07:15:12.285Z,14.61
2023-05-15T07:17:50.091Z,14.73
2023-05-15T07:20:24.779Z,14.65
2023-05-15T07:22:56.733Z,14.77
2023-05-15T07:25:25.661Z,14.86
2023-05-15T07:27:55.007Z,14.60
2023-05-15T07:30:23.515Z,14.71
2023-05-15T07:32:52.949Z,14.83
2023-05-15T07:35:21.020Z,14.71
2023-05-15T07:37:49.097Z,14.77
2023-05-15T07:40:17.096Z,14.69
2023-05-15T07:42:45.439Z,14.70
2023-05-15T07:45:13.498Z,14.89
2023-05-15T07:47:46.326Z,14.77
2023-05-15T07:50:16.885Z,14.73
2023-05-15T07:52:45.014Z,14.77
2023-05-15T07:55:13.882Z,14.86
2023-05-15T07:57:42.243Z,14.60
2023-05-15T08:00:13.585Z,14.57
2023-05-15T08:02:42.788Z,14.63
2023-05-15T08:05:13.360Z,14.44
2023-05-15T08:07:42.800Z,14.49
2023-05-15T08:10:11.641Z,14.53
2023-05-15T08:12:46.141Z,14.71
2023-05-15T08:15:14.758Z,14.63
2023-05-15T08:17:42.916Z,14.62
2023-05-15T08:20:12.049Z,14.51
2023-05-15T08:22:40.190Z,14.45
2023-05-15T08:25:10.576Z,14.57
2023-05-15T08:27:38.496Z,14.52
2023-05-15T08:30:07.750Z,14.55
2023-05-15T08:32:35.743Z,14.54
2023-05-15T08:35:03.728Z,14.51
2023-05-15T08:37:33.767Z,14.62
2023-05-15T08:40:01.882Z,14.83
2023-05-15T08:42:36.140Z,14.80
2023-05-15T08:45:04.345Z,15.02
2023-05-15T08:47:38.463Z,15.07
2023-05-15T08:50:08.389Z,15.25
2023-05-15T08:52:37.074Z,15.22
2023-05-15T08:55:06.902Z,15.27
2023-05-15T08:57:36.998Z,15.20
2023-05-15T09:00:08.937Z,15.03
2023-05-15T09:02:37.666Z,15.11
2023-05-15T09:05:06.759Z,15.03
2023-05-15T09:07:35.106Z,14.97
2023-05-15T09:10:04.766Z,14.95
2023-05-15T09:12:35.018Z,14.91
2023-05-15T09:15:17.758Z,14.92
2023-05-15T09:17:46.687Z,14.88
2023-05-15T09:20:27.976Z,14.93
2023-05-15T09:22:56.376Z,14.65
2023-05-15T09:25:38.550Z,14.75
2023-05-15T09:28:06.958Z,14.88
2023-05-15T09:30:39.302Z,14.90
2023-05-15T09:33:07.995Z,14.94
2023-05-15T09:35:37.925Z,15.11
2023-05-15T09:38:10.690Z,15.17
2023-05-15T09:40:40.369Z,15.46
2023-05-15T09:43:10.832Z,15.55
2023-05-15T09:45:40.286Z,15.72
2023-05-15T09:48:11.892Z,15.62
2023-05-15T09:50:41.112Z,15.73
2023-05-15T09:53:12.963Z,15.63
2023-05-15T09:55:43.401Z,15.31
2023-05-15T09:58:13.035Z,15.60
2023-05-15T10:00:48.213Z,15.55
2023-05-15T10:03:18.900Z,15.72
2023-05-15T10:05:47.056Z,15.78
2023-05-15T10:08:16.216Z,15.98
2023-05-15T10:10:44.749Z,15.67
2023-05-15T10:13:13.229Z,15.92
2023-05-15T10:15:43.773Z,15.97
2023-05-15T10:18:12.996Z,16.05
2023-05-15T10:20:41.117Z,15.96
2023-05-15T10:23:11.787Z,15.98
2023-05-15T10:25:43.706Z,16.10
2023-05-15T10:28:13.281Z,16.08
2023-05-15T10:30:44.250Z,16.06
2023-05-15T10:33:14.759Z,16.05
2023-05-15T10:35:44.629Z,16.22
2023-05-15T10:38:13.956Z,16.08
2023-05-15T10:40:42.823Z,16.02
2023-05-15T10:43:12.827Z,15.92
2023-05-15T10:45:43.440Z,16.08
2023-05-15T10:48:12.426Z,16.04
2023-05-15T10:50:42.672Z,16.00
2023-05-15T10:53:11.392Z,16.04
2023-05-15T10:55:39.639Z,16.00
2023-05-15T10:58:10.491Z,15.91
2023-05-15T11:00:45.414Z,15.86
2023-05-15T11:03:15.771Z,15.99
2023-05-15T11:06:10.028Z,16.09
2023-05-15T11:08:39.185Z,15.93
2023-05-15T11:11:07.903Z,15.61
2023-05-15T11:14:13.502Z,15.87
2023-05-15T11:17:06.440Z,15.99
2023-05-15T11:19:36.663Z,16.10
2023-05-15T11:22:18.552Z,16.13
2023-05-15T11:24:54.919Z,16.05
2023-05-15T11:27:24.741Z,16.02
2023-05-15T11:30:09.249Z,16.00
2023-05-15T11:32:51.498Z,16.13
2023-05-15T11:35:22.757Z,16.25
2023-05-15T11:37:54.073Z,16.67
2023-05-15T11:40:24.578Z,16.91
2023-05-15T11:43:07.119Z,16.71
2023-05-15T11:45:37.214Z,17.05
2023-05-15T11:48:09.262Z,17.30
2023-05-15T11:50:37.495Z,17.23
2023-05-15T11:53:07.035Z,17.24
2023-05-15T11:55:42.560Z,17.42
2023-05-15T11:58:15.182Z,17.50
2023-05-15T12:00:44.393Z,17.61
2023-05-15T12:03:25.268Z,17.58
2023-05-15T12:05:59.436Z,17.67
2023-05-15T12:08:34.458Z,17.51
2023-05-15T12:11:03.955Z,17.47
2023-05-15T12:13:33.008Z,17.61
2023-05-15T12:16:01.848Z,17.41
2023-05-15T12:18:31.861Z,17.16
2023-05-15T12:21:00.515Z,17.28
2023-05-15T12:23:28.930Z,17.28
2023-05-15T12:26:01.221Z,17.39
2023-05-15T12:28:30.468Z,17.31
2023-05-15T12:30:59.283Z,17.43
2023-05-15T12:33:27.809Z,17.45
2023-05-15T12:36:01.237Z,17.32
2023-05-15T12:38:30.743Z,17.68
2023-05-15T12:40:59.396Z,17.82
2023-05-15T12:43:27.809Z,18.19
2023-05-15T12:45:57.053Z,18.49
2023-05-15T12:48:30.232Z,18.42
2023-05-15T12:51:05.909Z,18.62
2023-05-15T12:53:34.633Z,19.09
2023-05-15T12:56:04.876Z,19.64
2023-05-15T12:58:33.062Z,19.92
2023-05-15T13:01:03.666Z,19.96
2023-05-15T13:03:32.484Z,19.93
2023-05-15T13:06:03.512Z,19.81
2023-05-15T13:08:31.609Z,19.84
2023-05-15T13:11:00.854Z,19.87
2023-05-15T13:13:43.425Z,19.69
2023-05-15T13:16:20.433Z,19.74
2023-05-15T13:18:48.889Z,20.03
2023-05-15T13:21:18.935Z,20.31
2023-05-15T13:23:47.002Z,20.68
2023-05-15T13:26:15.239Z,20.63
2023-05-15T13:28:43.315Z,21.25
2023-05-15T13:31:11.592Z,21.85
2023-05-15T13:33:39.820Z,22.11
2023-05-15T13:36:09.593Z,22.53
2023-05-15T13:38:39.293Z,22.17
2023-05-15T13:41:07.573Z,22.29
2023-05-15T13:43:35.766Z,22.82
2023-05-15T13:46:04.775Z,22.91
2023-05-15T13:48:33.522Z,22.87
2023-05-15T13:51:01.690Z,22.46
2023-05-15T13:53:29.910Z,22.51
2023-05-15T13:55:59.417Z,22.34
2023-05-15T13:58:27.596Z,21.93
2023-05-15T14:00:55.620Z,22.27
2023-05-15T14:03:23.811Z,22.44
2023-05-15T14:05:51.911Z,22.58
2023-05-15T14:08:19.976Z,22.74
2023-05-15T14:10:48.106Z,22.89
2023-05-15T14:13:17.750Z,23.30
2023-05-15T14:15:46.424Z,23.17
2023-05-15T14:18:14.790Z,22.75
2023-05-15T14:20:42.978Z,23.02
2023-05-15T14:23:10.946Z,22.83
2023-05-15T14:25:39.460Z,22.82
2023-05-15T14:28:07.583Z,22.71
2023-05-15T14:30:37.043Z,22.88
2023-05-15T14:33:05.199Z,23.06
2023-05-15T14:35:33.198Z,23.29
2023-05-15T14:38:01.338Z,23.25
2023-05-15T14:40:29.573Z,23.08
2023-05-15T14:42:57.579Z,22.62
2023-05-15T14:45:25.936Z,22.68
2023-05-15T14:47:55.578Z,22.23
2023-05-15T14:50:23.876Z,22.29
2023-05-15T14:52:51.958Z,22.42
2023-05-15T14:55:22.114Z,22.63
2023-05-15T14:57:50.730Z,22.62
2023-05-15T15:00:19.229Z,22.20
2023-05-15T15:02:47.291Z,22.18
2023-05-15T15:05:16.853Z,22.00
2023-05-15T15:08:03.467Z,21.74
2023-05-15T15:10:32.281Z,21.68
2023-05-15T15:13:01.090Z,21.84
2023-05-15T15:15:29.760Z,21.88
2023-05-15T15:17:58.453Z,22.20
2023-05-15T15:20:29.119Z,22.29
2023-05-15T15:22:57.410Z,21.84
2023-05-15T15:25:25.661Z,22.00
2023-05-15T15:27:53.807Z,21.93
2023-05-15T15:30:22.024Z,22.01
2023-05-15T15:32:50.027Z,22.10
2023-05-15T15:35:18.261Z,22.11
2023-05-15T15:37:47.782Z,22.09
2023-05-15T15:40:16.185Z,22.00
2023-05-15T15:42:44.280Z,21.67
2023-05-15T15:45:12.621Z,21.26
2023-05-15T15:47:40.630Z,20.95
2023-05-15T15:50:12.165Z,20.38
2023-05-15T15:52:40.232Z,20.52
2023-05-15T15:55:11.019Z,20.51
2023-05-15T15:57:44.475Z,20.45
2023-05-15T16:00:13.799Z,20.72
2023-05-15T16:02:42.221Z,20.57
2023-05-15T16:05:11.155Z,20.84
2023-05-15T16:07:39.164Z,20.84
2023-05-15T16:10:13.209Z,20.55
2023-05-15T16:12:42.814Z,20.40
2023-05-15T16:17:42.968Z,19.97
2023-05-15T16:20:11.453Z,19.95
2023-05-15T16:22:41.770Z,19.60
2023-05-15T16:25:11.527Z,19.26
2023-05-15T16:27:39.463Z,19.56
2023-05-15T16:30:09.379Z,19.32
2023-05-15T16:32:37.433Z,19.06
2023-05-15T16:35:06.426Z,18.44
2023-05-15T16:37:37.160Z,18.22
2023-05-15T16:40:06.145Z,17.73
2023-05-15T16:42:38.288Z,17.51
2023-05-15T16:45:07.537Z,17.06
2023-05-15T16:47:36.454Z,16.91
2023-05-15T16:50:04.903Z,16.82
2023-05-15T16:52:33.069Z,16.78
2023-05-15T16:55:01.055Z,16.55
2023-05-15T16:57:29.059Z,16.64
2023-05-15T16:59:58.759Z,16.43
2023-05-15T17:02:27.250Z,16.44
2023-05-15T17:04:55.332Z,16.41
2023-05-15T17:07:23.256Z,16.20
2023-05-15T17:09:51.269Z,16.17
2023-05-15T17:12:20.621Z,16.27
2023-05-15T17:14:49.174Z,16.20
2023-05-15T17:17:18.805Z,16.23
2023-05-15T17:19:47.250Z,16.21
2023-05-15T17:22:15.222Z,16.14
2023-05-15T17:27:18.562Z,16.15
2023-05-15T17:29:47.020Z,16.16
2023-05-15T17:32:15.928Z,16.01
2023-05-15T17:34:45.992Z,16.00
2023-05-15T17:37:14.186Z,16.04
2023-05-15T17:39:42.764Z,15.95
2023-05-15T17:42:10.832Z,15.88
2023-05-15T17:44:38.755Z,15.74
2023-05-15T17:47:06.901Z,15.69
2023-05-15T17:49:35.251Z,15.71
2023-05-15T17:52:05.008Z,15.57
2023-05-15T17:54:33.058Z,15.52
2023-05-15T17:57:01.328Z,15.56
2023-05-15T17:59:29.390Z,15.49
2023-05-15T18:01:57.619Z,15.50
2023-05-15T18:04:25.648Z,15.41
2023-05-15T18:06:53.640Z,15.54
2023-05-15T18:09:24.324Z,15.26
2023-05-15T18:11:52.815Z,15.33
2023-05-15T18:14:20.788Z,15.24
2023-05-15T18:16:48.739Z,15.00
2023-05-15T18:19:17.006Z,15.17
2023-05-15T18:21:45.006Z,15.09
2023-05-15T18:24:12.940Z,15.05
2023-05-15T18:26:42.331Z,15.08
2023-05-15T18:29:13.651Z,15.05
2023-05-15T18:31:41.623Z,14.85
2023-05-15T18:34:09.614Z,15.03
2023-05-15T18:36:37.552Z,14.89
2023-05-15T18:39:05.861Z,14.88
2023-05-15T18:41:34.005Z,14.76
2023-05-15T18:44:03.417Z,14.74
2023-05-15T18:46:31.879Z,14.62
2023-05-15T18:49:00.004Z,14.62
2023-05-15T18:51:28.090Z,14.66
2023-05-15T18:53:56.040Z,14.56
2023-05-15T18:56:25.230Z,14.76
2023-05-15T18:58:55.199Z,14.69
2023-05-15T19:01:24.615Z,14.71
2023-05-15T19:03:52.846Z,14.78
2023-05-15T19:06:21.098Z,14.70
2023-05-15T19:08:49.565Z,14.73
2023-05-15T19:11:17.611Z,14.71
2023-05-15T19:13:45.611Z,14.69
2023-05-15T19:16:13.653Z,14.65
2023-05-15T19:18:43.316Z,14.73
2023-05-15T19:21:11.531Z,14.69
2023-05-15T19:23:41.586Z,14.72
2023-05-15T19:26:10.897Z,14.67
2023-05-15T19:28:39.226Z,14.74
2023-05-15T19:31:14.109Z,14.70
2023-05-15T19:33:50.123Z,14.66
2023-05-15T19:36:18.604Z,14.69
2023-05-15T19:38:46.510Z,14.64
2023-05-15T19:41:14.759Z,14.55
2023-05-15T19:43:46.424Z,14.54
2023-05-15T19:46:14.621Z,14.54
2023-05-15T19:48:42.910Z,14.53
2023-05-15T19:51:12.483Z,14.48
2023-05-15T19:53:41.377Z,14.38
2023-05-15T19:56:09.680Z,14.50
2023-05-15T19:58:37.639Z,14.54
2023-05-15T20:01:05.542Z,14.49
2023-05-15T20:03:35.015Z,14.48
2023-05-15T20:06:03.431Z,14.44
2023-05-15T20:08:32.827Z,14.33
2023-05-15T20:11:02.118Z,14.43
2023-05-15T20:13:30.471Z,14.45
2023-05-15T20:16:00.714Z,14.28
2023-05-15T20:18:32.215Z,14.43
2023-05-15T20:21:01.843Z,14.38
2023-05-15T20:23:30.035Z,14.31
2023-05-15T20:25:59.579Z,14.37
2023-05-15T20:28:28.714Z,14.29
2023-05-15T20:30:57.898Z,14.42
2023-05-15T20:33:26.110Z,14.31
2023-05-15T20:35:54.083Z,14.33
2023-05-15T20:38:25.273Z,14.34
2023-05-15T20:40:53.677Z,14.25
2023-05-15T20:43:23.072Z,14.28
2023-05-15T20:45:51.015Z,14.19
2023-05-15T20:48:19.116Z,14.30
2023-05-15T20:50:47.333Z,14.25
2023-05-15T20:53:15.347Z,14.31
2023-05-15T20:55:43.359Z,14.31
2023-05-15T20:58:11.467Z,14.31
2023-05-15T21:00:40.734Z,14.26
2023-05-15T21:03:09.387Z,14.28
2023-05-15T21:05:37.573Z,14.29
2023-05-15T21:08:05.705Z,14.44
2023-05-15T21:10:33.661Z,14.42
2023-05-15T21:13:01.614Z,14.46
2023-05-15T21:15:29.580Z,14.45
2023-05-15T21:17:58.998Z,14.36
2023-05-15T21:20:27.460Z,14.46
2023-05-15T21:22:55.664Z,14.27
2023-05-15T21:25:23.825Z,14.31
2023-05-15T21:27:51.762Z,14.32
2023-05-15T21:30:19.870Z,14.18
2023-05-15T21:32:47.807Z,14.26
2023-05-15T21:35:17.267Z,14.12
2023-05-15T21:37:45.376Z,14.23
2023-05-15T21:40:14.277Z,14.26
2023-05-15T21:42:43.137Z,14.20
2023-05-15T21:45:11.427Z,14.31
2023-05-15T21:47:39.446Z,14.19
2023-05-15T21:50:08.673Z,14.02
2023-05-15T21:52:37.915Z,14.19
2023-05-15T21:55:06.652Z,14.14
2023-05-15T21:57:34.658Z,14.16
2023-05-15T22:00:02.708Z,14.03
2023-05-15T22:02:30.747Z,13.94
2023-05-15T22:04:58.776Z,14.10
2023-05-15T22:07:26.715Z,14.20
2023-05-15T22:09:56.192Z,14.20
2023-05-15T22:12:24.281Z,14.28
2023-05-15T22:14:59.112Z,14.19
2023-05-15T22:17:29.181Z,14.20
2023-05-15T22:20:06.448Z,14.17
2023-05-15T22:22:35.778Z,14.19
2023-05-15T22:25:05.747Z,14.07
2023-05-15T22:27:33.742Z,14.05
2023-05-15T22:30:01.731Z,14.06
2023-05-15T22:32:29.761Z,14.05
2023-05-15T22:34:57.857Z,14.02
2023-05-15T22:37:25.999Z,14.03
2023-05-15T22:39:53.952Z,14.00
2023-05-15T22:42:24.028Z,14.10
2023-05-15T22:44:52.151Z,14.11
2023-05-15T22:47:20.162Z,14.12
2023-05-15T22:49:48.143Z,14.17
2023-05-15T22:52:16.182Z,14.18
2023-05-15T22:54:44.087Z,14.19
2023-05-15T22:57:12.007Z,14.18
2023-05-15T22:59:41.910Z,14.29
2023-05-15T23:02:09.940Z,14.36
2023-05-15T23:04:37.999Z,14.20
2023-05-15T23:07:06.336Z,14.33
2023-05-15T23:09:34.209Z,14.33
2023-05-15T23:12:02.224Z,14.29
2023-05-15T23:14:31.177Z,14.26
2023-05-15T23:17:00.533Z,14.29
2023-05-15T23:19:28.473Z,14.35
2023-05-15T23:21:56.865Z,14.36
2023-05-15T23:24:24.854Z,14.33
2023-05-15T23:26:52.732Z,14.34
2023-05-15T23:29:20.831Z,14.37
2023-05-15T23:31:48.814Z,14.33
2023-05-15T23:34:20.816Z,14.28
2023-05-15T23:36:48.795Z,14.17
2023-05-15T23:39:17.178Z,14.28
2023-05-15T23:41:45.151Z,14.23
2023-05-15T23:44:13.108Z,14.26
2023-05-15T23:46:41.021Z,14.19
2023-05-15T23:49:08.950Z,14.15
2023-05-15T23:51:38.229Z,14.07
2023-05-15T23:54:06.507Z,14.10
2023-05-15T23:56:34.456Z,14.09
2023-05-15T23:59:02.898Z,14.10
